createdAt,value
2023-01-13T00:00:10.729Z,90.00
2023-01-13T00:03:13.996Z,90.00
2023-01-13T00:06:20.343Z,90.20
2023-01-13T00:09:23.394Z,90.40
2023-01-13T00:12:26.309Z,90.10
2023-01-13T00:15:29.217Z,90.00
2023-01-13T00:18:32.349Z,90.10
2023-01-13T00:21:37.288Z,90.10
2023-01-13T00:24:40.229Z,90.00
2023-01-13T00:27:43.180Z,90.40
2023-01-13T00:30:46.150Z,90.00
2023-01-13T00:33:51.169Z,90.00
2023-01-13T00:36:56.374Z,90.00
2023-01-13T00:40:00.621Z,89.90
2023-01-13T00:43:20.981Z,90.00
2023-01-13T00:46:24.015Z,90.10
2023-01-13T00:49:27.111Z,90.00
2023-01-13T00:52:33.006Z,90.00
2023-01-13T00:55:36.006Z,90.00
2023-01-13T00:58:38.952Z,89.90
2023-01-13T01:01:42.374Z,89.70
2023-01-13T01:04:45.400Z,90.10
2023-01-13T01:07:49.869Z,90.10
2023-01-13T01:11:02.267Z,90.10
2023-01-13T01:14:05.819Z,90.00
2023-01-13T01:17:08.768Z,89.60
2023-01-13T01:20:12.645Z,90.00
2023-01-13T01:23:17.006Z,89.20
2023-01-13T01:26:22.052Z,88.90
2023-01-13T01:29:24.988Z,88.60
2023-01-13T01:32:28.065Z,88.20
2023-01-13T01:35:31.269Z,88.20
2023-01-13T01:38:35.634Z,88.40
2023-01-13T01:41:39.013Z,87.60
2023-01-13T01:45:01.191Z,88.10
2023-01-13T01:48:07.223Z,87.90
2023-01-13T01:51:14.180Z,87.60
2023-01-13T01:54:23.650Z,87.80
2023-01-13T01:57:30.687Z,86.90
2023-01-13T02:00:34.126Z,87.40
2023-01-13T02:03:40.474Z,87.00
2023-01-13T02:06:45.329Z,86.70
2023-01-13T02:09:50.013Z,86.70
2023-01-13T02:12:54.011Z,86.60
2023-01-13T02:16:06.243Z,86.40
2023-01-13T02:19:27.940Z,86.30
2023-01-13T02:22:47.835Z,85.90
2023-01-13T02:26:10.215Z,86.10
2023-01-13T02:29:44.713Z,85.80
2023-01-13T02:32:59.304Z,85.40
2023-01-13T02:36:07.365Z,85.00
2023-01-13T02:39:17.061Z,84.70
2023-01-13T02:42:43.861Z,84.60
2023-01-13T02:45:53.787Z,85.20
2023-01-13T02:49:01.173Z,84.00
2023-01-13T02:52:11.548Z,83.90
2023-01-13T02:55:18.106Z,83.80
2023-01-13T02:58:25.297Z,83.90
2023-01-13T03:01:29.733Z,83.90
2023-01-13T03:04:48.690Z,84.30
2023-01-13T03:08:24.344Z,83.70
2023-01-13T03:11:33.671Z,83.40
2023-01-13T03:14:44.046Z,83.40
2023-01-13T03:17:56.970Z,83.60
2023-01-13T03:21:07.152Z,83.60
2023-01-13T03:24:17.127Z,83.90
2023-01-13T03:27:27.994Z,83.80
2023-01-13T03:30:34.986Z,84.30
2023-01-13T03:33:45.781Z,83.50
2023-01-13T03:36:51.103Z,83.50
2023-01-13T03:39:58.883Z,84.00
2023-01-13T03:43:22.501Z,84.00
2023-01-13T03:46:34.904Z,84.30
2023-01-13T03:49:45.722Z,83.20
2023-01-13T03:52:51.979Z,83.10
2023-01-13T03:56:00.154Z,82.50
2023-01-13T03:59:06.838Z,81.70
2023-01-13T04:02:15.543Z,81.00
2023-01-13T04:05:20.318Z,81.00
2023-01-13T04:08:25.945Z,80.30
2023-01-13T04:11:34.506Z,80.10
2023-01-13T04:14:38.279Z,79.60
2023-01-13T04:17:41.124Z,78.80
2023-01-13T04:20:46.932Z,79.20
2023-01-13T04:23:51.372Z,79.20
2023-01-13T04:26:56.411Z,78.80
2023-01-13T04:29:59.205Z,79.00
2023-01-13T04:33:02.145Z,79.80
2023-01-13T04:36:07.356Z,78.80
2023-01-13T04:39:10.196Z,78.80
2023-01-13T04:42:13.093Z,78.60
2023-01-13T04:45:15.971Z,78.50
2023-01-13T04:48:18.797Z,79.30
2023-01-13T04:51:23.079Z,78.50
2023-01-13T04:54:25.894Z,78.20
2023-01-13T04:57:28.734Z,78.30
2023-01-13T05:00:31.973Z,78.30
2023-01-13T05:03:34.792Z,78.70
2023-01-13T05:06:38.985Z,78.40
2023-01-13T05:09:41.946Z,78.30
2023-01-13T05:13:02.139Z,78.60
2023-01-13T05:16:22.886Z,78.50
2023-01-13T05:19:25.699Z,79.00
2023-01-13T05:22:47.554Z,79.20
2023-01-13T05:25:50.577Z,79.30
2023-01-13T05:28:53.422Z,79.00
2023-01-13T05:31:56.234Z,79.70
2023-01-13T05:34:59.123Z,79.10
2023-01-13T05:38:03.245Z,79.50
2023-01-13T05:41:24.085Z,79.50
2023-01-13T05:44:26.892Z,79.60
2023-01-13T05:47:29.709Z,79.30
2023-01-13T05:50:32.484Z,79.60
2023-01-13T05:53:37.004Z,79.40
2023-01-13T05:56:39.801Z,79.50
2023-01-13T05:59:42.581Z,79.50
2023-01-13T06:02:45.500Z,79.50
2023-01-13T06:05:50.337Z,79.70
2023-01-13T06:08:54.521Z,80.00
2023-01-13T06:11:57.318Z,80.30
2023-01-13T06:15:00.119Z,80.80
2023-01-13T06:18:03.901Z,80.30
2023-01-13T06:21:06.959Z,80.90
2023-01-13T06:24:11.357Z,81.00
2023-01-13T06:27:14.660Z,81.20
2023-01-13T06:30:18.490Z,81.80
2023-01-13T06:33:27.631Z,82.40
2023-01-13T06:36:36.606Z,82.70
2023-01-13T06:39:40.981Z,83.30
2023-01-13T06:43:01.559Z,83.30
2023-01-13T06:46:04.434Z,83.50
2023-01-13T06:49:07.560Z,84.00
2023-01-13T06:52:10.381Z,84.60
2023-01-13T06:55:14.608Z,84.60
2023-01-13T06:58:17.533Z,84.50
2023-01-13T07:01:20.428Z,84.40
2023-01-13T07:04:24.052Z,84.50
2023-01-13T07:07:28.073Z,84.60
2023-01-13T07:10:33.624Z,84.60
2023-01-13T07:13:54.216Z,84.10
2023-01-13T07:16:57.002Z,83.90
2023-01-13T07:20:00.004Z,83.70
2023-01-13T07:23:02.993Z,83.50
2023-01-13T07:26:09.311Z,83.20
2023-01-13T07:29:12.882Z,83.00
2023-01-13T07:32:15.712Z,83.00
2023-01-13T07:35:23.245Z,84.20
2023-01-13T07:38:26.220Z,83.60
2023-01-13T07:41:48.048Z,83.60
2023-01-13T07:44:50.899Z,83.10
2023-01-13T07:47:54.554Z,82.00
2023-01-13T07:50:57.387Z,81.90
2023-01-13T07:54:00.644Z,81.70
2023-01-13T07:57:04.960Z,81.70
2023-01-13T08:00:11.406Z,82.60
2023-01-13T08:03:15.664Z,83.00
2023-01-13T08:06:18.740Z,83.00
2023-01-13T08:09:21.651Z,83.00
2023-01-13T08:12:53.539Z,83.70
2023-01-13T08:16:02.587Z,84.40
2023-01-13T08:19:05.664Z,84.60
2023-01-13T08:22:08.447Z,84.50
2023-01-13T08:25:11.452Z,84.70
2023-01-13T08:28:16.868Z,84.40
2023-01-13T08:31:20.072Z,83.70
2023-01-13T08:34:23.306Z,83.40
2023-01-13T08:37:26.166Z,82.40
2023-01-13T08:40:30.795Z,82.30
2023-01-13T08:43:34.990Z,82.00
2023-01-13T08:46:38.029Z,81.50
2023-01-13T08:49:40.938Z,81.00
2023-01-13T08:52:43.786Z,80.60
2023-01-13T08:55:46.701Z,80.80
2023-01-13T08:58:50.908Z,80.80
2023-01-13T09:01:53.943Z,80.40
2023-01-13T09:04:56.884Z,80.80
2023-01-13T09:07:59.686Z,80.30
2023-01-13T09:11:22.557Z,80.20
2023-01-13T09:14:27.738Z,80.50
2023-01-13T09:17:30.556Z,80.90
2023-01-13T09:20:33.457Z,80.60
2023-01-13T09:23:36.260Z,79.90
2023-01-13T09:26:39.329Z,79.80
2023-01-13T09:29:44.066Z,79.50
2023-01-13T09:32:46.955Z,78.90
2023-01-13T09:35:48.810Z,79.30
2023-01-13T09:38:51.971Z,79.00
2023-01-13T09:42:15.473Z,78.70
2023-01-13T09:45:23.459Z,78.50
2023-01-13T09:48:31.344Z,78.90
2023-01-13T09:51:40.980Z,78.30
2023-01-13T09:54:47.841Z,77.60
2023-01-13T09:57:50.882Z,78.20
2023-01-13T10:01:06.682Z,77.90
2023-01-13T10:04:13.197Z,78.90
2023-01-13T10:07:16.559Z,78.60
2023-01-13T10:10:26.414Z,78.80
2023-01-13T10:13:31.081Z,79.00
2023-01-13T10:16:42.413Z,78.90
2023-01-13T10:19:50.824Z,79.60
2023-01-13T10:23:04.182Z,80.30
2023-01-13T10:26:24.168Z,80.40
2023-01-13T10:29:28.773Z,80.80
2023-01-13T10:32:33.259Z,80.50
2023-01-13T10:35:57.627Z,81.30
2023-01-13T10:39:10.036Z,80.30
2023-01-13T10:42:15.345Z,79.70
2023-01-13T10:45:25.898Z,80.20
2023-01-13T10:48:39.462Z,79.10
2023-01-13T10:51:45.553Z,78.60
2023-01-13T10:54:53.030Z,79.20
2023-01-13T10:57:56.292Z,78.60
2023-01-13T11:01:06.145Z,79.40
2023-01-13T11:04:31.598Z,79.20
2023-01-13T11:07:37.727Z,80.10
2023-01-13T11:10:47.461Z,80.60
2023-01-13T11:14:12.349Z,81.60
2023-01-13T11:17:33.824Z,82.00
2023-01-13T11:20:43.101Z,83.20
2023-01-13T11:23:51.491Z,88.20
2023-01-13T11:27:00.333Z,90.90
2023-01-13T11:30:11.211Z,91.00
2023-01-13T11:33:29.488Z,89.20
2023-01-13T11:36:39.276Z,87.50
2023-01-13T11:39:53.970Z,86.40
2023-01-13T11:43:04.832Z,86.80
2023-01-13T11:46:10.110Z,85.70
2023-01-13T11:49:23.474Z,85.70
2023-01-13T11:52:34.895Z,85.80
2023-01-13T11:55:47.522Z,86.80
2023-01-13T11:59:17.269Z,87.10
2023-01-13T12:02:35.783Z,86.70
2023-01-13T12:05:42.265Z,85.50
2023-01-13T12:09:12.006Z,85.80
2023-01-13T12:12:27.728Z,86.50
2023-01-13T12:15:54.425Z,85.20
2023-01-13T12:19:15.736Z,84.70
2023-01-13T12:22:24.714Z,85.30
2023-01-13T12:25:34.551Z,85.80
2023-01-13T12:28:49.119Z,85.40
2023-01-13T12:31:53.280Z,85.60
2023-01-13T12:35:12.432Z,85.20
2023-01-13T12:38:21.203Z,85.20
2023-01-13T12:41:34.514Z,85.30
2023-01-13T12:44:36.511Z,86.10
2023-01-13T12:47:41.378Z,86.30
2023-01-13T12:50:44.368Z,86.60
2023-01-13T12:53:47.250Z,86.20
2023-01-13T12:56:51.512Z,87.20
2023-01-13T13:00:18.781Z,88.60
2023-01-13T13:03:33.441Z,90.00
2023-01-13T13:06:38.329Z,90.20
2023-01-13T13:09:45.933Z,90.50
2023-01-13T13:13:15.114Z,90.60
2023-01-13T13:16:53.013Z,90.60
2023-01-13T13:19:57.548Z,90.40
2023-01-13T13:23:00.553Z,89.80
2023-01-13T13:26:10.930Z,89.70
2023-01-13T13:29:44.910Z,88.90
2023-01-13T13:33:04.173Z,89.00
2023-01-13T13:36:19.762Z,89.10
2023-01-13T13:39:42.950Z,89.60
2023-01-13T13:43:09.360Z,89.30
2023-01-13T13:46:43.820Z,89.30
2023-01-13T13:49:50.508Z,89.20
2023-01-13T13:53:05.460Z,89.00
2023-01-13T13:56:17.205Z,87.80
2023-01-13T13:59:23.632Z,87.40
2023-01-13T14:02:30.525Z,87.40
2023-01-13T14:05:35.298Z,87.60
2023-01-13T14:08:46.594Z,90.30
2023-01-13T14:12:02.084Z,94.60
2023-01-13T14:15:05.510Z,95.70
2023-01-13T14:18:14.410Z,97.00
2023-01-13T14:21:21.498Z,97.20
2023-01-13T14:24:25.123Z,97.60
2023-01-13T14:27:30.021Z,97.50
2023-01-13T14:30:34.691Z,97.50
2023-01-13T14:33:42.488Z,97.40
2023-01-13T14:36:47.901Z,97.40
2023-01-13T14:39:50.975Z,97.10
2023-01-13T14:42:59.865Z,97.00
2023-01-13T14:46:03.738Z,97.10
2023-01-13T14:49:23.546Z,96.80
2023-01-13T14:52:28.861Z,96.60
2023-01-13T14:55:33.687Z,96.40
2023-01-13T14:58:36.593Z,96.20
2023-01-13T15:01:39.804Z,96.00
2023-01-13T15:04:44.155Z,96.20
2023-01-13T15:07:52.453Z,95.80
2023-01-13T15:11:00.057Z,95.90
2023-01-13T15:14:03.143Z,96.30
2023-01-13T15:17:15.581Z,96.30
2023-01-13T15:20:21.830Z,95.90
2023-01-13T15:23:24.715Z,95.80
2023-01-13T15:26:29.776Z,95.60
2023-01-13T15:29:32.708Z,95.50
2023-01-13T15:32:35.572Z,95.50
2023-01-13T15:35:42.677Z,95.70
2023-01-13T15:38:45.587Z,95.50
2023-01-13T15:42:06.020Z,95.30
2023-01-13T15:45:30.724Z,95.30
2023-01-13T15:48:33.791Z,95.10
2023-01-13T15:51:40.774Z,94.90
2023-01-13T15:54:43.645Z,94.80
2023-01-13T15:57:50.706Z,94.70
2023-01-13T16:00:53.874Z,95.00
2023-01-13T16:03:56.958Z,95.10
2023-01-13T16:07:01.242Z,95.10
2023-01-13T16:10:05.470Z,95.00
2023-01-13T16:13:08.594Z,95.00
2023-01-13T16:16:20.275Z,94.90
2023-01-13T16:19:23.178Z,95.10
2023-01-13T16:22:27.548Z,95.20
2023-01-13T16:25:30.468Z,94.80
2023-01-13T16:28:35.814Z,95.10
2023-01-13T16:31:39.213Z,95.30
2023-01-13T16:34:42.818Z,95.20
2023-01-13T16:37:48.502Z,95.20
2023-01-13T16:40:52.291Z,95.40
2023-01-13T16:43:55.498Z,95.60
2023-01-13T16:46:58.387Z,95.60
2023-01-13T16:50:01.251Z,95.60
2023-01-13T16:53:05.907Z,95.80
2023-01-13T16:56:21.168Z,95.90
2023-01-13T16:59:24.042Z,96.00
2023-01-13T17:02:26.972Z,95.90
2023-01-13T17:05:30.248Z,96.10
2023-01-13T17:08:34.467Z,96.10
2023-01-13T17:11:37.347Z,96.00
2023-01-13T17:14:40.203Z,96.00
2023-01-13T17:17:46.949Z,95.70
2023-01-13T17:20:49.829Z,95.90
2023-01-13T17:23:54.050Z,95.90
2023-01-13T17:26:57.820Z,95.90
2023-01-13T17:30:00.685Z,95.90
2023-01-13T17:33:03.714Z,96.00
2023-01-13T17:36:06.976Z,95.90
2023-01-13T17:39:17.147Z,95.80
2023-01-13T17:42:20.105Z,95.60
2023-01-13T17:45:22.962Z,95.50
2023-01-13T17:48:26.718Z,95.40
2023-01-13T17:51:30.192Z,95.60
2023-01-13T17:54:34.445Z,95.80
2023-01-13T17:57:37.312Z,95.40
2023-01-13T18:00:40.588Z,95.40
2023-01-13T18:03:43.853Z,95.40
2023-01-13T18:06:47.851Z,95.40
2023-01-13T18:09:52.061Z,95.40
2023-01-13T18:12:55.043Z,95.60
2023-01-13T18:16:02.997Z,95.50
2023-01-13T18:19:24.088Z,95.40
2023-01-13T18:22:44.617Z,95.50
2023-01-13T18:26:06.628Z,95.30
2023-01-13T18:29:09.516Z,95.00
2023-01-13T18:32:12.798Z,94.80
2023-01-13T18:35:15.742Z,94.70
2023-01-13T18:38:19.911Z,94.40
2023-01-13T18:41:41.452Z,94.10
2023-01-13T18:44:44.360Z,96.40
2023-01-13T18:47:47.290Z,95.50
2023-01-13T18:50:50.135Z,94.00
2023-01-13T18:53:53.928Z,93.70
2023-01-13T18:56:58.330Z,93.20
2023-01-13T19:00:01.256Z,93.20
2023-01-13T19:06:12.373Z,92.90
2023-01-13T19:09:16.230Z,92.90
2023-01-13T19:12:26.028Z,93.10
2023-01-13T19:15:29.063Z,93.20
2023-01-13T19:18:32.071Z,93.30
2023-01-13T19:21:35.028Z,93.40
2023-01-13T19:24:41.783Z,93.40
2023-01-13T19:27:46.167Z,93.10
2023-01-13T19:30:49.093Z,93.30
2023-01-13T19:33:52.351Z,93.60
2023-01-13T19:36:55.919Z,93.50
2023-01-13T19:39:59.549Z,93.60
2023-01-13T19:43:21.035Z,93.70
2023-01-13T19:46:26.981Z,93.70
2023-01-13T19:49:29.912Z,93.70
2023-01-13T19:52:32.925Z,93.70
2023-01-13T19:55:35.855Z,93.60
2023-01-13T19:58:40.090Z,93.70
2023-01-13T20:01:43.108Z,94.10
2023-01-13T20:04:46.774Z,94.20
2023-01-13T20:07:50.692Z,94.50
2023-01-13T20:11:13.896Z,94.90
2023-01-13T20:14:18.133Z,94.80
2023-01-13T20:17:22.948Z,95.20
2023-01-13T20:20:27.303Z,95.40
2023-01-13T20:23:30.252Z,95.90
2023-01-13T20:26:33.456Z,96.60
2023-01-13T20:29:38.768Z,97.30
2023-01-13T20:32:42.226Z,98.30
2023-01-13T20:35:45.764Z,99.60
2023-01-13T20:38:48.738Z,99.90
2023-01-13T20:42:08.996Z,99.90
2023-01-13T20:45:17.707Z,99.70
2023-01-13T20:48:20.831Z,99.30
2023-01-13T20:51:23.771Z,98.60
2023-01-13T20:54:27.586Z,98.70
2023-01-13T20:57:30.621Z,99.40
2023-01-13T21:00:35.014Z,99.30
2023-01-13T21:03:38.601Z,99.40
2023-01-13T21:06:42.181Z,99.50
2023-01-13T21:09:45.183Z,99.50
2023-01-13T21:13:05.621Z,99.30
2023-01-13T21:16:11.196Z,98.70
2023-01-13T21:19:13.124Z,98.40
2023-01-13T21:22:16.289Z,98.80
2023-01-13T21:25:19.898Z,98.10
2023-01-13T21:28:22.787Z,97.90
2023-01-13T21:31:28.858Z,98.20
2023-01-13T21:34:32.828Z,98.00
2023-01-13T21:37:37.336Z,97.60
2023-01-13T21:40:40.428Z,97.90
2023-01-13T21:44:00.715Z,98.00
2023-01-13T21:47:22.573Z,97.80
2023-01-13T21:50:27.987Z,97.50
2023-01-13T21:53:30.856Z,97.70
2023-01-13T21:56:33.782Z,97.70
2023-01-13T21:59:36.635Z,97.90
2023-01-13T22:02:41.266Z,98.20
2023-01-13T22:05:44.241Z,98.20
2023-01-13T22:08:47.149Z,98.40
2023-01-13T22:11:50.049Z,98.60
2023-01-13T22:14:53.782Z,98.70
2023-01-13T22:17:58.101Z,98.90
2023-01-13T22:21:01.794Z,98.50
2023-01-13T22:24:04.812Z,98.30
2023-01-13T22:27:07.691Z,98.10
2023-01-13T22:30:14.020Z,97.90
2023-01-13T22:33:18.306Z,97.90
2023-01-13T22:36:21.607Z,97.70
2023-01-13T22:39:24.476Z,97.50
2023-01-13T22:42:27.365Z,97.30
2023-01-13T22:45:30.270Z,97.20
2023-01-13T22:48:34.991Z,97.40
2023-01-13T22:51:37.876Z,97.20
2023-01-13T22:54:40.779Z,96.80
2023-01-13T22:57:48.090Z,96.40
2023-01-13T23:00:51.282Z,96.20
2023-01-13T23:03:56.231Z,96.40
2023-01-13T23:06:59.967Z,96.20
2023-01-13T23:10:02.874Z,96.10
2023-01-13T23:13:05.879Z,96.10
2023-01-13T23:16:10.781Z,96.40
2023-01-13T23:19:15.247Z,96.80
2023-01-13T23:22:18.161Z,97.10
2023-01-13T23:25:21.017Z,97.60
2023-01-13T23:28:24.127Z,97.90
2023-01-13T23:31:27.045Z,98.10
2023-01-13T23:34:31.359Z,98.20
2023-01-13T23:37:35.432Z,98.40
2023-01-13T23:40:38.390Z,98.50
2023-01-13T23:43:41.570Z,98.90
2023-01-13T23:46:44.533Z,99.30
2023-01-13T23:49:48.777Z,99.30
2023-01-13T23:52:51.663Z,99.50
2023-01-13T23:55:57.920Z,99.60
2023-01-13T23:59:00.910Z,99.90
